»·PEaware :: N956RL KLAX-KSAN

N956RL :: KLAX-KSAN

FLIGHT INFORMATION

Flight Status: Arrived
Operator: Privately registered:
United States
More flights under this callsign
Pilot: Paul H. (26851)
Aircraft: CESSNA 182 SKYLANE
(C182)
More flights by this aircraft type
Origin: KLAX Los Angeles Intl
United States
Destination: KSAN San Diego Intl-Lindbergh
United States
More flights between these airports :: More routes between these airports
Route: +
File this flight plan on PilotEdge
Remarks: CAT11
Altitude:
(Current/Filed)
0ft
Speed:
(Current/Filed)
0kts
Departed: 10-Jan-20 09:37 AM
Arrived: 10-Jan-20 10:35 AM
Distance/Time
Traveled:
95nm/0:58
Distance/Time
To Go:
Arrived

Flight Plot

Page will automatically refresh every two minutes.


Map Options




Map Legend


Flown Route
Filed Route
Departure Airport
Arrival Airport
Navaid (VOR, NDB)
Fix

Horizontal Profiles

Position Reports

Time Latitude Longitude Heading Altitude Ground
Speed
10-Jan-20 09:27 33.935332 -118.382416 281 95ft 0kts
10-Jan-20 09:28 33.935332 -118.382416 281 95ft 0kts
10-Jan-20 09:29 33.935332 -118.382416 281 95ft 0kts
10-Jan-20 09:30 33.935332 -118.382416 281 95ft 0kts
10-Jan-20 09:31 33.935332 -118.382416 281 95ft 0kts
10-Jan-20 09:32 33.935426 -118.382414 49 95ft 3kts
10-Jan-20 09:33 33.936313 -118.380815 272 95ft 7kts
10-Jan-20 09:34 33.936401 -118.382819 354 95ft 0kts
10-Jan-20 09:35 33.936401 -118.382819 354 95ft 0kts
10-Jan-20 09:37 33.936874 -118.387860 263 124ft 75kts
10-Jan-20 09:38 33.933448 -118.420674 267 1311ft 111kts
10-Jan-20 09:39 33.930898 -118.463599 267 1449ft 134kts
10-Jan-20 09:40 33.920588 -118.503296 191 1473ft 133kts
10-Jan-20 09:41 33.888243 -118.483697 142 1510ft 134kts
10-Jan-20 09:42 33.859529 -118.457874 142 1800ft 124kts
10-Jan-20 09:43 33.830055 -118.431407 142 1806ft 134kts
10-Jan-20 09:44 33.799822 -118.404223 142 1803ft 135kts
10-Jan-20 09:45 33.766127 -118.383709 154 1796ft 135kts
10-Jan-20 09:46 33.731240 -118.364013 154 1590ft 143kts
10-Jan-20 09:47 33.700048 -118.336987 137 1494ft 135kts
10-Jan-20 09:48 33.671107 -118.308257 140 1491ft 134kts
10-Jan-20 09:49 33.641886 -118.280262 140 1500ft 133kts
10-Jan-20 09:50 33.612687 -118.252330 139 1497ft 134kts
10-Jan-20 09:51 33.583416 -118.224345 139 1492ft 134kts
10-Jan-20 09:52 33.553956 -118.196484 139 1480ft 134kts
10-Jan-20 09:53 33.524606 -118.168517 139 1478ft 134kts
10-Jan-20 09:54 33.495251 -118.140528 139 1478ft 134kts
10-Jan-20 09:54 33.470676 -118.117113 139 1478ft 135kts
10-Jan-20 09:56 33.436186 -118.084274 139 1472ft 136kts
10-Jan-20 09:57 33.406232 -118.056594 139 1472ft 135kts
10-Jan-20 09:58 33.376529 -118.028456 139 1466ft 135kts
10-Jan-20 09:59 33.347073 -118.000491 140 1465ft 134kts
10-Jan-20 09:59 33.322576 -117.977266 140 1462ft 134kts
10-Jan-20 10:00 33.293414 -117.949635 141 1459ft 133kts
10-Jan-20 10:02 33.259535 -117.917567 141 1458ft 132kts
10-Jan-20 10:02 33.235272 -117.894605 141 1461ft 132kts
10-Jan-20 10:03 33.206198 -117.867137 141 1462ft 133kts
10-Jan-20 10:05 33.172311 -117.835145 141 1461ft 134kts
10-Jan-20 10:05 33.146881 -117.811162 141 1458ft 141kts
10-Jan-20 10:06 33.116166 -117.781376 140 1453ft 142kts
10-Jan-20 10:07 33.085238 -117.751832 140 1451ft 142kts
10-Jan-20 10:08 33.054332 -117.722265 140 1436ft 142kts
10-Jan-20 10:09 33.023462 -117.692731 140 1436ft 142kts
10-Jan-20 10:10 32.992549 -117.663156 140 1431ft 142kts
10-Jan-20 10:11 32.961509 -117.633715 141 1434ft 141kts
10-Jan-20 10:12 32.930614 -117.604277 140 1447ft 142kts
10-Jan-20 10:13 32.901992 -117.571863 130 1442ft 141kts
10-Jan-20 10:14 32.876481 -117.537296 126 1484ft 136kts
10-Jan-20 10:15 32.853610 -117.503201 126 1482ft 129kts
10-Jan-20 10:16 32.831448 -117.469917 126 1490ft 127kts
10-Jan-20 10:17 32.809855 -117.437071 126 1485ft 121kts
10-Jan-20 10:18 32.791647 -117.409017 126 1484ft 89kts
10-Jan-20 10:19 32.778882 -117.384159 115 1484ft 97kts
10-Jan-20 10:20 32.755354 -117.367081 153 1497ft 96kts
10-Jan-20 10:21 32.744095 -117.344403 104 1501ft 75kts
10-Jan-20 10:22 32.730677 -117.340977 242 1506ft 96kts
10-Jan-20 10:23 32.737746 -117.377122 286 1481ft 121kts
10-Jan-20 10:24 32.761564 -117.384133 75 1502ft 107kts
10-Jan-20 10:25 32.756624 -117.349748 106 1522ft 107kts
10-Jan-20 10:26 32.741521 -117.316834 118 1524ft 119kts
10-Jan-20 10:27 32.728774 -117.280260 85 1489ft 123kts
10-Jan-20 10:28 32.730197 -117.239600 97 1393ft 128kts
10-Jan-20 10:29 32.722972 -117.202612 105 995ft 98kts
10-Jan-20 10:30 32.716469 -117.176256 105 988ft 77kts
10-Jan-20 10:31 32.713538 -117.151998 28 615ft 75kts
10-Jan-20 10:32 32.727940 -117.165987 285 343ft 78kts
10-Jan-20 10:33 32.733229 -117.188387 285 16ft 45kts
10-Jan-20 10:34 32.733778 -117.194924 185 16ft 9kts
10-Jan-20 10:35 32.732889 -117.194848 155 16ft 0kts

Navigation Log

Ident Type
Flight plan parsing failed, navigation log unavailable